Time;durP1;ratioP1;P1;durP2;ratioP2;P2;SDS_P1;SDS_P2;PMS_P1;PMS_P2;Temp;Humidity;BMP_temperature;BMP_pressure;BME280_temperature;BME280_humidity;BME280_pressure;Samples;Min_cycle;Max_cycle;Signal;HPM_P1;HPM_P2
2022/01/16 00:04:16;;;;;;;90.75;27.15;;;;;;;2.00;98.10;102301.66;5056471;28;20037;-66
2022/01/16 00:06:43;;;;;;;95.80;26.85;;;;;;;1.93;98.18;102300.41;5056191;28;20463;-66
2022/01/16 00:09:08;;;;;;;91.43;27.58;;;;;;;1.99;98.37;102295.75;5056133;28;20116;-67
2022/01/16 00:11:37;;;;;;;100.07;26.10;;;;;;;2.09;98.22;102288.34;5056125;28;20132;-66
2022/01/16 00:14:04;;;;;;;100.57;27.98;;;;;;;2.08;98.06;102302.00;5056588;28;20029;-67
2022/01/16 00:16:29;;;;;;;93.07;29.63;;;;;;;2.17;97.98;102309.09;5038330;28;20418;-66
2022/01/16 00:18:55;;;;;;;113.15;27.85;;;;;;;2.09;97.80;102306.19;5055824;28;20017;-67
2022/01/16 00:21:24;;;;;;;121.57;29.60;;;;;;;2.15;98.13;102289.69;5055617;28;20025;-67
2022/01/16 00:23:51;;;;;;;86.97;27.67;;;;;;;2.08;98.21;102286.72;5037712;28;20111;-67
2022/01/16 00:26:17;;;;;;;95.07;27.17;;;;;;;2.12;98.53;102285.59;5055699;28;20528;-67
2022/01/16 00:28:42;;;;;;;93.60;28.15;;;;;;;2.16;98.20;102291.34;5055765;28;20013;-67
2022/01/16 00:31:08;;;;;;;93.07;26.58;;;;;;;2.07;98.47;102284.25;5055731;28;20032;-67
2022/01/16 00:33:33;;;;;;;97.47;28.63;;;;;;;2.14;98.42;102272.75;5055692;28;20384;-68
2022/01/16 00:35:59;;;;;;;89.13;27.83;;;;;;;1.99;98.42;102271.97;5055653;28;20021;-67
2022/01/16 00:38:24;;;;;;;110.85;29.67;;;;;;;1.99;98.93;102267.69;5037648;28;20035;-67
2022/01/16 00:40:51;;;;;;;99.03;27.42;;;;;;;1.95;99.92;102271.31;5037687;28;20027;-67
2022/01/16 00:43:16;;;;;;;115.60;27.88;;;;;;;2.03;99.11;102281.06;5055516;28;20052;-66
2022/01/16 00:45:41;;;;;;;104.05;29.55;;;;;;;2.11;99.70;102283.97;5037600;28;20125;-67
2022/01/16 00:48:07;;;;;;;101.72;28.17;;;;;;;2.07;99.21;102277.41;5055635;28;20459;-67
2022/01/16 00:50:34;;;;;;;93.55;27.23;;;;;;;2.10;98.59;102292.53;5037434;28;20028;-67
2022/01/16 00:53:00;;;;;;;99.82;28.70;;;;;;;2.03;99.36;102271.69;5055098;28;20488;-69
2022/01/16 00:55:26;;;;;;;99.63;27.75;;;;;;;2.03;99.50;102264.03;5055280;28;20028;-66
2022/01/16 00:57:51;;;;;;;115.38;27.90;;;;;;;1.95;99.47;102263.69;5055193;28;20025;-67
2022/01/16 01:00:16;;;;;;;97.47;29.27;;;;;;;2.00;99.92;102271.06;5055168;28;20021;-67
2022/01/16 01:02:42;;;;;;;110.10;28.17;;;;;;;1.91;99.86;102241.84;5055174;28;20096;-67
2022/01/16 01:05:08;;;;;;;125.00;29.58;;;;;;;1.96;99.94;102231.38;5055185;28;20025;-67
2022/01/16 01:07:35;;;;;;;86.88;27.98;;;;;;;1.97;99.54;102218.50;5037387;28;20032;-67
2022/01/16 01:10:01;;;;;;;106.50;29.35;;;;;;;2.05;100.00;102233.34;5037086;28;20531;-67
2022/01/16 01:12:30;;;;;;;106.18;29.17;;;;;;;2.17;99.67;102221.56;5054927;28;20083;-67
2022/01/16 01:15:10;;;;;;;106.50;29.02;;;;;;;2.08;99.38;102245.09;5054869;28;20025;-66
2022/01/16 01:17:47;;;;;;;107.57;28.15;;;;;;;1.98;99.18;102234.63;5054935;28;20467;-67
2022/01/16 01:20:16;;;;;;;88.22;27.35;;;;;;;2.13;99.14;102243.91;5054647;28;20530;-67
2022/01/16 01:22:42;;;;;;;95.82;28.25;;;;;;;2.11;98.97;102242.34;5036837;28;20067;-66
2022/01/16 01:25:09;;;;;;;91.25;26.10;;;;;;;2.21;99.05;102243.41;5054678;28;20078;-67
2022/01/16 01:27:34;;;;;;;87.45;26.92;;;;;;;2.36;98.78;102250.09;5054626;28;20021;-67
2022/01/16 01:30:05;;;;;;;82.60;26.10;;;;;;;2.29;97.89;102242.91;5036704;28;20512;-66
2022/01/16 01:32:32;;;;;;;82.75;26.55;;;;;;;2.35;98.42;102261.19;5054607;28;20021;-67
2022/01/16 01:34:57;;;;;;;77.90;25.50;;;;;;;2.37;97.49;102266.22;5054994;28;20163;-66
2022/01/16 01:37:22;;;;;;;73.93;25.83;;;;;;;2.38;98.00;102266.09;5036512;28;20515;-66
2022/01/16 01:39:48;;;;;;;74.28;25.40;;;;;;;2.40;97.79;102268.56;5054324;28;20029;-67
2022/01/16 01:42:14;;;;;;;81.65;26.17;;;;;;;2.24;97.60;102202.38;5054629;28;20114;-67
2022/01/16 01:52:55;;;;;;;94.53;26.95;;;;;;;2.36;97.79;102167.63;5054179;28;20107;-67
2022/01/16 01:55:23;;;;;;;85.05;27.15;;;;;;;2.39;98.26;102191.22;5054171;28;20024;-67
2022/01/16 01:57:49;;;;;;;74.38;25.35;;;;;;;2.55;98.35;102216.56;5053997;28;20052;-67
2022/01/16 02:00:17;;;;;;;88.45;26.65;;;;;;;2.44;97.47;102218.97;5054060;28;20064;-68
2022/01/16 02:05:18;;;;;;;78.72;27.30;;;;;;;2.60;97.72;102229.03;5054303;28;20041;-66
2022/01/16 02:07:44;;;;;;;81.03;26.50;;;;;;;2.50;98.68;102231.34;5054374;28;20111;-67
2022/01/16 02:10:09;;;;;;;83.60;27.10;;;;;;;2.60;98.44;102240.03;5035961;28;20064;-68
2022/01/16 02:12:38;;;;;;;91.63;27.25;;;;;;;2.69;98.03;102256.50;5054591;28;20039;-67
2022/01/16 02:15:29;;;;;;;93.20;28.20;;;;;;;2.59;98.83;102233.31;5035871;28;20021;-68
2022/01/16 02:31:32;;;;;;;93.03;26.67;;;;;;;2.55;99.25;102270.16;5042493;28;20033;-67
2022/01/16 02:36:50;;;;;;;94.25;27.90;;;;;;;2.74;99.55;102262.13;5053518;28;20448;-67
2022/01/16 02:39:16;;;;;;;83.05;27.13;;;;;;;2.74;98.75;102266.44;5053889;28;20020;-68
2022/01/16 02:41:44;;;;;;;106.88;28.05;;;;;;;2.74;98.59;102254.47;5053847;28;20021;-67
2022/01/16 02:45:01;;;;;;;99.28;28.63;;;;;;;2.83;97.99;102255.63;5053425;28;20025;-65
2022/01/16 02:47:01;;;;;;;88.05;27.65;;;;;;;2.91;98.26;102259.31;5042443;28;20036;-65
2022/01/16 02:49:32;;;;;;;91.50;28.63;;;;;;;2.80;98.23;102241.31;5035436;28;20024;-67
2022/01/16 02:52:01;;;;;;;102.93;28.70;;;;;;;2.87;98.29;102246.81;5035231;28;20056;-67
2022/01/16 02:54:28;;;;;;;94.57;28.08;;;;;;;2.84;98.17;102235.06;5035273;28;20021;-67
2022/01/16 02:56:54;;;;;;;91.57;26.88;;;;;;;2.92;98.91;102226.91;5053238;28;20029;-67
2022/01/16 02:59:21;;;;;;;92.00;28.08;;;;;;;2.86;98.32;102233.25;5053162;28;20036;-66
2022/01/16 03:01:47;;;;;;;86.50;28.80;;;;;;;2.95;98.65;102226.72;5035413;28;20025;-67
2022/01/16 03:04:12;;;;;;;101.20;28.33;;;;;;;3.01;98.20;102226.31;5053343;28;20103;-66
2022/01/16 03:06:38;;;;;;;99.45;28.92;;;;;;;3.01;97.99;102223.75;5035286;28;20100;-67
2022/01/16 03:09:08;;;;;;;91.50;27.65;;;;;;;2.86;98.66;102223.03;5053145;28;20013;-67
2022/01/16 03:11:40;;;;;;;97.80;29.00;;;;;;;2.88;99.37;102220.38;5053154;28;20472;-67
2022/01/16 03:14:09;;;;;;;98.55;28.80;;;;;;;2.94;99.38;102214.88;5035312;28;20021;-67
2022/01/16 03:16:35;;;;;;;98.60;28.27;;;;;;;2.91;98.56;102204.88;5053084;28;20074;-66
2022/01/16 03:21:54;;;;;;;111.03;29.90;;;;;;;2.85;99.09;102197.59;5053883;28;20063;-67
2022/01/16 03:24:27;;;;;;;96.03;26.98;;;;;;;2.87;99.09;102205.97;5053600;28;20376;-66
2022/01/16 03:26:55;;;;;;;107.40;29.52;;;;;;;2.90;99.71;102204.03;5053302;28;20399;-67
2022/01/16 03:29:21;;;;;;;102.50;30.05;;;;;;;2.98;99.31;102207.81;5052944;28;20017;-67
2022/01/16 03:31:46;;;;;;;105.35;29.80;;;;;;;3.02;98.86;102199.88;5052977;28;20031;-66
2022/01/16 03:34:12;;;;;;;100.50;29.05;;;;;;;3.16;98.36;102184.44;5052865;28;20483;-67
2022/01/16 03:36:37;;;;;;;113.38;30.83;;;;;;;3.10;98.28;102189.09;5052867;28;20045;-67
2022/01/16 03:39:03;;;;;;;103.88;29.63;;;;;;;3.07;98.29;102179.09;5035042;28;20029;-66
2022/01/16 03:41:29;;;;;;;102.60;28.17;;;;;;;3.19;98.54;102180.00;5052879;28;20036;-67
2022/01/16 03:43:58;;;;;;;103.07;29.83;;;;;;;3.12;98.05;102159.19;5035999;28;20048;-66
2022/01/16 03:46:24;;;;;;;101.18;29.33;;;;;;;3.12;98.69;102164.28;5056668;28;20108;-67
2022/01/16 03:48:49;;;;;;;104.50;29.77;;;;;;;3.17;99.18;102163.06;5056665;28;20479;-66
2022/01/16 03:51:15;;;;;;;94.82;30.42;;;;;;;3.23;98.69;102172.03;5056346;28;20056;-67
2022/01/16 03:53:40;;;;;;;106.10;31.13;;;;;;;3.20;98.73;102171.44;5056681;28;20479;-67
2022/01/16 03:56:05;;;;;;;104.10;31.40;;;;;;;3.19;98.35;102167.22;5056963;28;20052;-67
2022/01/16 03:58:31;;;;;;;99.00;30.70;;;;;;;3.23;98.51;102161.81;5056534;28;20079;-67
2022/01/16 04:00:56;;;;;;;98.63;27.83;;;;;;;3.20;98.40;102174.00;5038520;28;20078;-67
2022/01/16 04:03:21;;;;;;;98.18;31.73;;;;;;;3.23;99.06;102174.59;5056416;28;20051;-67
2022/01/16 04:05:47;;;;;;;105.72;32.53;;;;;;;3.29;98.72;102181.03;5056181;28;20487;-66
2022/01/16 04:08:12;;;;;;;104.13;30.85;;;;;;;3.31;98.34;102169.78;5038619;28;20418;-67
2022/01/16 04:10:37;;;;;;;99.50;31.52;;;;;;;3.35;98.24;102166.09;5038487;28;20052;-67
2022/01/16 04:13:03;;;;;;;90.22;29.85;;;;;;;3.38;97.31;102176.09;5056978;28;20052;-67
2022/01/16 04:15:32;;;;;;;99.95;31.95;;;;;;;3.27;98.56;102167.53;5062767;28;20029;-70
2022/01/16 04:17:57;;;;;;;105.22;31.67;;;;;;;3.29;98.52;102170.81;5066157;28;20028;-70
2022/01/16 04:20:23;;;;;;;93.10;30.58;;;;;;;3.35;98.72;102176.31;5049263;28;20042;-67
2022/01/16 04:22:48;;;;;;;103.43;32.92;;;;;;;3.31;98.10;102171.50;5066423;28;20104;-70
2022/01/16 04:25:14;;;;;;;107.57;33.88;;;;;;;3.27;98.66;102162.41;5066227;28;20024;-69
2022/01/16 04:27:40;;;;;;;101.03;31.35;;;;;;;3.27;99.04;102170.09;5067687;28;20025;-69
2022/01/16 04:30:06;;;;;;;102.65;32.38;;;;;;;3.27;98.92;102163.22;5067218;28;20017;-69
2022/01/16 04:32:31;;;;;;;99.65;32.65;;;;;;;3.27;99.14;102172.63;5067135;28;20032;-69
2022/01/16 04:34:57;;;;;;;103.80;32.95;;;;;;;3.44;98.81;102154.41;5060603;28;20029;-67
2022/01/16 04:37:22;;;;;;;100.05;32.65;;;;;;;3.55;98.38;102163.91;5058098;28;20078;-66
2022/01/16 04:39:52;;;;;;;94.53;32.65;;;;;;;3.61;98.15;102150.69;5057518;28;20051;-67
2022/01/16 04:45:04;;;;;;;100.45;33.60;;;;;;;3.51;97.90;102150.53;5056644;28;20079;-66
2022/01/16 04:47:30;;;;;;;102.60;33.05;;;;;;;3.47;98.41;102145.72;5038910;28;20115;-67
2022/01/16 04:49:55;;;;;;;93.38;33.47;;;;;;;3.53;98.05;102155.50;5056603;28;20387;-66
2022/01/16 04:52:21;;;;;;;90.70;30.40;;;;;;;3.55;97.41;102146.81;5038146;28;20099;-66
2022/01/16 04:54:46;;;;;;;93.03;32.95;;;;;;;3.59;97.36;102148.22;5055770;28;20029;-66
2022/01/16 04:57:13;;;;;;;90.18;32.90;;;;;;;3.57;96.98;102150.09;5055179;28;20064;-67
2022/01/16 04:59:39;;;;;;;87.78;32.05;;;;;;;3.56;97.66;102145.06;5055571;28;20029;-67
2022/01/16 05:02:04;;;;;;;90.63;33.20;;;;;;;3.57;96.86;102149.28;5055533;28;20586;-67
2022/01/16 05:04:30;;;;;;;90.38;31.88;;;;;;;3.61;97.10;102148.13;5055304;28;20090;-66
2022/01/16 05:06:55;;;;;;;83.20;31.60;;;;;;;3.58;96.56;102151.72;5055154;28;20040;-67
2022/01/16 05:09:20;;;;;;;86.22;31.23;;;;;;;3.47;97.76;102148.28;5055030;28;20456;-67
2022/01/16 05:11:46;;;;;;;87.90;32.58;;;;;;;3.46;97.46;102141.53;5055268;28;20036;-67
2022/01/16 05:16:55;;;;;;;84.10;31.83;;;;;;;3.54;97.28;102129.84;5055438;28;20043;-66
2022/01/16 05:19:21;;;;;;;78.28;32.40;;;;;;;3.52;96.71;102134.25;5054760;28;20025;-67
2022/01/16 05:21:46;;;;;;;76.15;30.67;;;;;;;3.57;97.01;102144.16;5054815;28;20028;-66
2022/01/16 05:24:12;;;;;;;76.03;30.90;;;;;;;3.44;96.72;102112.72;5036888;28;20438;-67
2022/01/16 05:26:43;;;;;;;75.13;30.52;;;;;;;3.61;96.87;102125.13;5055015;28;20031;-67
2022/01/16 05:29:10;;;;;;;78.80;31.63;;;;;;;3.63;96.26;102135.25;5054643;28;20356;-67
2022/01/16 05:31:35;;;;;;;73.25;30.20;;;;;;;3.58;96.35;102138.13;5054589;28;20031;-66
2022/01/16 05:34:00;;;;;;;75.32;30.50;;;;;;;3.52;96.44;102136.00;5055065;28;20025;-67
2022/01/16 05:36:26;;;;;;;76.15;30.70;;;;;;;3.53;96.99;102145.28;5054564;28;20029;-67
2022/01/16 05:38:53;;;;;;;71.88;30.17;;;;;;;3.61;96.85;102151.50;5054407;28;20452;-66
2022/01/16 05:41:18;;;;;;;73.45;30.08;;;;;;;3.67;96.12;102150.25;5054674;28;20107;-66
2022/01/16 05:43:45;;;;;;;66.38;29.50;;;;;;;3.61;96.26;102151.50;5054805;28;20063;-67
2022/01/16 05:46:11;;;;;;;69.72;30.05;;;;;;;3.60;96.05;102138.84;5036693;28;20055;-67
2022/01/16 05:48:36;;;;;;;72.35;29.70;;;;;;;3.58;96.23;102144.03;5054349;28;20056;-67
2022/01/16 05:51:01;;;;;;;67.75;28.58;;;;;;;3.59;95.49;102152.50;5036253;28;20040;-67
2022/01/16 05:53:26;;;;;;;63.97;29.58;;;;;;;3.58;95.99;102158.56;5054477;28;20024;-66
2022/01/16 05:55:52;;;;;;;67.47;28.17;;;;;;;3.65;96.04;102159.75;5054121;28;20055;-67
2022/01/16 05:58:17;;;;;;;58.20;28.00;;;;;;;3.65;95.69;102157.19;5036091;28;20021;-66
2022/01/16 06:00:44;;;;;;;60.85;28.00;;;;;;;3.70;96.09;102146.66;5054064;28;20372;-67
2022/01/16 06:03:10;;;;;;;65.70;28.88;;;;;;;3.79;95.17;102153.66;5054067;28;20032;-67
2022/01/16 06:05:35;;;;;;;62.17;28.13;;;;;;;3.75;95.43;102145.41;5036366;28;20053;-67
2022/01/16 06:08:07;;;;;;;56.97;27.45;;;;;;;3.65;95.35;102141.03;5054273;28;20075;-66
2022/01/16 06:10:32;;;;;;;56.00;26.88;;;;;;;3.64;95.40;102139.44;5036877;28;20430;-66
2022/01/16 06:12:57;;;;;;;59.17;27.40;;;;;;;3.67;95.46;102142.56;5054303;28;20025;-67
2022/01/16 06:15:23;;;;;;;64.47;28.08;;;;;;;3.79;95.76;102144.25;5053925;28;20104;-65
2022/01/16 06:17:49;;;;;;;56.28;26.23;;;;;;;3.69;95.40;102135.63;5053957;28;20055;-66
2022/01/16 06:20:15;;;;;;;56.47;26.27;;;;;;;3.70;95.61;102150.03;5053620;28;20032;-66
2022/01/16 06:22:41;;;;;;;53.42;26.90;;;;;;;3.64;95.81;102149.66;5053850;28;20021;-67
2022/01/16 06:25:07;;;;;;;54.03;27.40;;;;;;;3.76;95.21;102148.78;5035730;28;20062;-65
2022/01/16 06:27:33;;;;;;;59.08;27.38;;;;;;;3.71;94.59;102145.72;5053562;28;20029;-65
2022/01/16 06:29:58;;;;;;;50.38;25.52;;;;;;;3.76;95.12;102134.25;5035710;28;20021;-66
2022/01/16 06:32:23;;;;;;;59.22;27.27;;;;;;;3.67;94.72;102144.31;5053528;28;20033;-66
2022/01/16 06:34:48;;;;;;;54.83;26.20;;;;;;;3.69;95.25;102142.47;5035707;28;20025;-65
2022/01/16 06:37:14;;;;;;;53.30;26.08;;;;;;;3.73;94.99;102151.56;5053437;28;20017;-66
2022/01/16 06:39:39;;;;;;;53.17;26.45;;;;;;;3.65;95.52;102153.84;5053350;28;20025;-66
2022/01/16 06:42:05;;;;;;;57.20;26.88;;;;;;;3.61;95.51;102160.91;5035575;28;20033;-66
2022/01/16 06:44:30;;;;;;;48.53;25.40;;;;;;;3.66;95.03;102168.25;5053364;28;20031;-66
2022/01/16 06:46:55;;;;;;;50.80;26.02;;;;;;;3.75;95.08;102165.06;5054025;28;20031;-67
2022/01/16 06:49:21;;;;;;;58.92;25.27;;;;;;;3.74;95.24;102178.75;5053855;28;20024;-66
2022/01/16 06:51:46;;;;;;;50.85;25.05;;;;;;;3.59;95.32;102167.84;5053057;28;20095;-66
2022/01/16 06:54:11;;;;;;;51.38;24.15;;;;;;;3.75;95.05;102177.84;5035346;28;20476;-66
2022/01/16 06:56:37;;;;;;;48.85;23.80;;;;;;;3.76;94.43;102174.34;5053267;28;20074;-66
2022/01/16 06:59:02;;;;;;;51.88;25.38;;;;;;;3.66;95.59;102174.19;5053150;28;20116;-66
2022/01/16 07:01:27;;;;;;;51.97;25.40;;;;;;;3.73;94.81;102187.34;5053208;28;20108;-66
2022/01/16 07:03:56;;;;;;;46.38;23.55;;;;;;;3.90;94.41;102194.66;5053295;28;20067;-66
2022/01/16 07:06:22;;;;;;;47.53;24.83;;;;;;;3.87;94.83;102194.88;5035330;28;20154;-66
2022/01/16 07:08:47;;;;;;;55.47;24.05;;;;;;;3.86;94.29;102200.09;5053093;28;20048;-66
2022/01/16 07:11:12;;;;;;;48.13;23.95;;;;;;;4.00;94.51;102199.91;5053130;28;20021;-66
2022/01/16 07:13:38;;;;;;;43.13;21.65;;;;;;;3.93;93.80;102199.53;5053144;28;20111;-66
2022/01/16 07:16:04;;;;;;;47.33;23.48;;;;;;;4.06;94.19;102200.31;5035230;28;20032;-66
2022/01/16 07:18:29;;;;;;;52.15;23.77;;;;;;;4.14;93.76;102201.50;5053289;28;20032;-66
2022/01/16 07:20:55;;;;;;;49.95;22.33;;;;;;;4.09;93.69;102206.16;5057079;28;20051;-66
2022/01/16 07:23:21;;;;;;;41.95;21.80;;;;;;;4.22;93.41;102215.38;5057088;28;20028;-66
2022/01/16 07:25:47;;;;;;;43.97;21.83;;;;;;;4.16;93.13;102215.81;5039003;28;20115;-66
2022/01/16 07:28:13;;;;;;;42.42;21.55;;;;;;;4.26;92.18;102228.78;5057066;28;20438;-66
2022/01/16 07:30:39;;;;;;;41.35;21.58;;;;;;;4.29;92.35;102234.50;5057468;28;20103;-66
2022/01/16 07:33:06;;;;;;;43.42;21.98;;;;;;;4.30;92.50;102228.44;5039056;28;20028;-66
2022/01/16 07:35:33;;;;;;;44.85;21.20;;;;;;;4.23;92.70;102228.97;5056782;28;20040;-66
2022/01/16 07:37:59;;;;;;;39.70;20.25;;;;;;;4.27;92.51;102227.84;5056765;28;20490;-66
2022/01/16 07:40:25;;;;;;;37.00;19.75;;;;;;;4.40;91.97;102233.72;5038817;28;20013;-66
2022/01/16 07:42:51;;;;;;;35.40;18.70;;;;;;;4.42;91.63;102231.03;5040901;28;20029;-68
2022/01/16 07:45:16;;;;;;;38.15;20.20;;;;;;;4.44;91.54;102236.88;5041930;28;20028;-65
2022/01/16 07:47:42;;;;;;;38.60;19.10;;;;;;;4.47;90.94;102236.66;5056792;28;20032;-67
2022/01/16 07:50:09;;;;;;;35.08;18.63;;;;;;;4.61;91.12;102230.53;5038745;28;20024;-67
2022/01/16 07:52:34;;;;;;;33.33;16.98;;;;;;;4.67;89.77;102236.00;5056490;28;20052;-65
2022/01/16 07:54:59;;;;;;;32.25;17.50;;;;;;;4.81;89.56;102231.63;5038549;28;20051;-65
2022/01/16 07:57:25;;;;;;;31.27;16.30;;;;;;;4.74;88.65;102224.38;5038914;28;20036;-66
2022/01/16 07:59:51;;;;;;;29.35;14.95;;;;;;;4.69;88.50;102228.22;5040414;28;20032;-67
2022/01/16 08:02:17;;;;;;;24.63;13.88;;;;;;;4.88;88.62;102254.09;5059104;28;20033;-68
2022/01/16 08:04:42;;;;;;;22.90;12.13;;;;;;;5.03;87.55;102246.22;5040044;28;20028;-66
2022/01/16 08:07:10;;;;;;;24.98;12.40;;;;;;;5.13;87.14;102252.28;5056384;28;20024;-66
2022/01/16 08:09:36;;;;;;;24.58;12.15;;;;;;;5.06;87.38;102261.34;5055939;28;20021;-66
2022/01/16 08:12:03;;;;;;;22.38;11.60;;;;;;;5.16;87.22;102250.31;5056556;28;20083;-66
2022/01/16 08:14:28;;;;;;;17.17;10.38;;;;;;;5.16;86.51;102250.31;5055975;28;20095;-66
2022/01/16 08:16:56;;;;;;;20.65;10.55;;;;;;;5.26;87.10;102255.53;5056049;28;20036;-66
2022/01/16 08:19:22;;;;;;;17.20;10.18;;;;;;;5.29;85.41;102247.63;5037844;28;20049;-66
2022/01/16 08:21:47;;;;;;;20.27;10.45;;;;;;;5.32;85.71;102249.13;5055734;28;20053;-66
2022/01/16 08:24:12;;;;;;;15.48;9.30;;;;;;;5.36;85.83;102248.00;5056080;28;20103;-67
2022/01/16 08:26:37;;;;;;;18.65;9.05;;;;;;;5.40;85.77;102251.94;5037761;28;20025;-67
2022/01/16 08:29:03;;;;;;;16.00;9.60;;;;;;;5.42;85.80;102242.41;5055663;28;20043;-66
2022/01/16 08:31:28;;;;;;;16.58;8.50;;;;;;;5.53;84.33;102239.00;5036494;28;20472;-66
2022/01/16 08:33:53;;;;;;;15.73;7.95;;;;;;;5.51;85.28;102238.31;5037844;28;20479;-66
2022/01/16 08:36:21;;;;;;;16.23;8.20;;;;;;;5.49;84.70;102248.66;5055868;28;20403;-67
2022/01/16 08:38:46;;;;;;;15.75;7.40;;;;;;;5.49;84.35;102240.97;5037842;28;20024;-67
2022/01/16 08:41:11;;;;;;;12.68;7.70;;;;;;;5.54;84.93;102244.00;5056843;28;20130;-68
2022/01/16 08:43:37;;;;;;;13.98;7.32;;;;;;;5.56;85.13;102254.16;5056274;28;20029;-66
2022/01/16 08:46:02;;;;;;;13.95;7.50;;;;;;;5.65;83.76;102266.28;5056414;28;20021;-67
2022/01/16 08:48:28;;;;;;;12.85;6.97;;;;;;;5.74;83.55;102264.75;5038936;28;20017;-67
2022/01/16 08:50:54;;;;;;;17.30;7.68;;;;;;;5.72;84.33;102271.72;5056280;28;20490;-67
2022/01/16 08:53:19;;;;;;;18.63;7.07;;;;;;;5.74;84.49;102265.56;5055632;28;20049;-66
2022/01/16 08:55:44;;;;;;;13.68;7.07;;;;;;;5.81;84.69;102271.84;5055659;28;20055;-66
2022/01/16 08:58:10;;;;;;;11.90;6.75;;;;;;;5.85;84.85;102273.25;5055561;28;20427;-66
2022/01/16 09:00:35;;;;;;;17.13;7.18;;;;;;;5.82;84.27;102278.63;5037232;28;20055;-66
2022/01/16 09:03:01;;;;;;;14.05;7.53;;;;;;;5.83;84.34;102272.53;5038101;28;20025;-67
2022/01/16 09:05:27;;;;;;;15.23;7.15;;;;;;;5.98;84.42;102285.94;5037603;28;20550;-66
2022/01/16 09:07:52;;;;;;;11.93;7.18;;;;;;;5.99;84.02;102289.34;5038451;28;20124;-66
2022/01/16 09:10:18;;;;;;;12.55;6.80;;;;;;;6.02;84.76;102289.91;5038657;28;20041;-68
2022/01/16 09:12:43;;;;;;;18.52;7.75;;;;;;;5.98;85.52;102290.28;5055312;28;20021;-66
2022/01/16 09:15:11;;;;;;;14.02;7.28;;;;;;;5.93;86.26;102284.66;5037036;28;20036;-66
2022/01/16 09:17:37;;;;;;;20.40;8.02;;;;;;;5.99;86.16;102295.28;5036986;28;20104;-66
2022/01/16 09:20:05;;;;;;;16.58;7.47;;;;;;;6.06;85.62;102295.63;5054683;28;20025;-66
2022/01/16 09:22:30;;;;;;;21.83;8.55;;;;;;;6.10;85.24;102299.59;5036884;28;20025;-66
2022/01/16 09:24:56;;;;;;;15.55;8.52;;;;;;;6.05;86.88;102310.22;5054634;28;20387;-66
2022/01/16 09:27:21;;;;;;;14.95;7.78;;;;;;;6.16;86.34;102306.81;5036945;28;20029;-66
2022/01/16 09:29:46;;;;;;;15.18;7.70;;;;;;;6.20;86.08;102305.63;5054542;28;20021;-66
2022/01/16 09:32:16;;;;;;;15.32;7.88;;;;;;;6.23;86.58;102305.38;5036754;28;20032;-66
2022/01/16 09:34:42;;;;;;;20.33;7.75;;;;;;;6.31;86.41;102307.34;5036694;28;20063;-66
2022/01/16 09:37:09;;;;;;;15.07;7.35;;;;;;;6.20;86.93;102315.09;5054492;28;20028;-66
2022/01/16 09:39:36;;;;;;;13.95;7.18;;;;;;;6.27;86.57;102313.66;5054362;28;20020;-66
2022/01/16 09:42:03;;;;;;;14.02;7.43;;;;;;;6.35;86.39;102311.28;5036174;28;20209;-66
2022/01/16 09:44:29;;;;;;;14.82;7.63;;;;;;;6.34;86.53;102312.25;5036428;28;20052;-66
2022/01/16 09:46:54;;;;;;;16.73;7.40;;;;;;;6.41;86.01;102318.50;5036434;28;20030;-65
2022/01/16 09:49:19;;;;;;;17.10;7.70;;;;;;;6.27;86.85;102314.50;5036352;28;20017;-66
2022/01/16 09:51:45;;;;;;;18.58;7.55;;;;;;;6.28;87.04;102323.00;5054114;28;20045;-65
2022/01/16 09:54:10;;;;;;;17.83;8.13;;;;;;;6.35;87.16;102325.91;5054131;28;20025;-66
2022/01/16 09:56:36;;;;;;;18.63;7.38;;;;;;;6.34;87.41;102335.34;5054040;28;20383;-66
2022/01/16 09:59:01;;;;;;;18.50;7.03;;;;;;;6.41;87.12;102331.34;5036136;28;20033;-66
2022/01/16 10:01:26;;;;;;;17.48;7.93;;;;;;;6.34;87.41;102337.91;5036189;28;20063;-65
2022/01/16 10:03:52;;;;;;;15.57;7.72;;;;;;;6.37;87.85;102345.38;5053980;28;20096;-65
2022/01/16 10:06:20;;;;;;;15.40;7.35;;;;;;;6.48;87.11;102347.91;5053968;28;20029;-66
2022/01/16 10:08:47;;;;;;;16.42;7.43;;;;;;;6.50;87.72;102335.78;5053934;28;20017;-66
2022/01/16 10:11:34;;;;;;;21.17;7.78;;;;;;;6.52;87.11;102338.22;5054585;28;20025;-70
2022/01/16 10:14:09;;;;;;;19.05;7.82;;;;;;;6.55;87.07;102345.66;5036926;28;20500;-66
2022/01/16 10:16:40;;;;;;;14.88;7.95;;;;;;;6.51;87.79;102352.81;5053880;28;20103;-65
2022/01/16 10:19:19;;;;;;;23.10;8.73;;;;;;;6.41;87.91;102357.03;5036448;28;20053;-65
2022/01/16 10:21:45;;;;;;;21.83;9.02;;;;;;;6.45;88.06;102366.13;5053916;28;20531;-65
2022/01/16 10:24:22;;;;;;;19.30;9.02;;;;;;;6.44;87.75;102361.91;5053630;28;20112;-66
2022/01/16 10:27:09;;;;;;;23.65;10.10;;;;;;;6.43;88.50;102362.06;5053965;28;20044;-66
2022/01/16 10:29:43;;;;;;;20.75;10.45;;;;;;;6.43;87.94;102355.16;5053749;28;20024;-67
2022/01/16 10:32:28;;;;;;;22.92;11.23;;;;;;;6.20;88.83;102356.97;5053624;28;20025;-67
2022/01/16 10:35:17;;;;;;;29.35;12.82;;;;;;;6.18;89.32;102358.00;5053517;28;20023;-66
2022/01/16 10:37:51;;;;;;;31.77;14.80;;;;;;;6.22;89.22;102357.69;5035549;28;20472;-67
2022/01/16 10:40:19;;;;;;;35.10;15.43;;;;;;;6.13;89.45;102358.41;5053569;28;20021;-66
2022/01/16 10:42:57;;;;;;;35.90;16.10;;;;;;;6.10;89.91;102366.34;5035401;28;20383;-67
2022/01/16 10:45:28;;;;;;;41.97;18.63;;;;;;;6.03;90.17;102360.84;5035219;28;20032;-66
2022/01/16 10:47:57;;;;;;;39.53;17.67;;;;;;;5.96;90.64;102364.00;5052330;28;20025;-67
2022/01/16 10:50:28;;;;;;;40.90;19.65;;;;;;;5.91;91.28;102359.19;5052648;28;20025;-67
2022/01/16 10:53:00;;;;;;;49.05;20.92;;;;;;;5.88;91.23;102354.28;5051205;28;20081;-66
2022/01/16 10:55:55;;;;;;;46.92;19.02;;;;;;;5.89;91.19;102367.00;5051714;28;20068;-67
2022/01/16 10:58:50;;;;;;;49.15;19.95;;;;;;;5.89;91.03;102361.84;5051637;28;20096;-67
2022/01/16 11:01:18;;;;;;;47.05;20.10;;;;;;;5.87;91.90;102379.13;5045914;28;20045;-66
2022/01/16 11:03:49;;;;;;;51.78;21.85;;;;;;;5.89;91.87;102374.69;5052112;28;20024;-66
2022/01/16 11:06:21;;;;;;;53.50;21.40;;;;;;;5.91;90.93;102381.47;5051970;28;20406;-66
2022/01/16 11:08:56;;;;;;;50.50;21.23;;;;;;;5.99;91.47;102387.69;5052126;28;20092;-67
2022/01/16 11:11:23;;;;;;;53.53;20.58;;;;;;;5.91;91.68;102384.84;5033653;28;20017;-66
2022/01/16 11:13:50;;;;;;;53.10;21.25;;;;;;;5.78;91.77;102379.84;5051605;28;20027;-66
2022/01/16 11:16:16;;;;;;;52.72;22.17;;;;;;;5.90;91.58;102385.78;5033923;28;20471;-66
2022/01/16 11:18:48;;;;;;;57.53;22.10;;;;;;;5.99;91.00;102387.69;5035398;28;20036;-67
2022/01/16 11:21:18;;;;;;;55.90;22.42;;;;;;;5.93;91.36;102390.72;5035155;28;20021;-66
2022/01/16 11:24:00;;;;;;;57.70;22.60;;;;;;;5.85;91.91;102395.59;5053569;28;20052;-67
2022/01/16 11:26:27;;;;;;;53.22;22.20;;;;;;;5.89;91.37;102379.00;5052955;28;20093;-66
2022/01/16 11:28:56;;;;;;;55.60;22.33;;;;;;;5.98;91.22;102382.66;5035033;28;20083;-66
2022/01/16 11:31:23;;;;;;;58.00;22.75;;;;;;;5.92;91.59;102389.03;5052949;28;20025;-66
2022/01/16 11:33:50;;;;;;;61.03;23.08;;;;;;;5.92;91.55;102375.41;5034958;28;20049;-67
2022/01/16 11:36:27;;;;;;;62.85;23.70;;;;;;;5.97;91.78;102379.28;5052908;28;20040;-67
2022/01/16 11:39:01;;;;;;;56.85;23.10;;;;;;;5.91;91.06;102382.28;5052699;28;20426;-67
2022/01/16 11:41:35;;;;;;;61.55;23.63;;;;;;;6.02;91.34;102389.19;5053509;28;20064;-67
2022/01/16 11:44:07;;;;;;;61.08;24.15;;;;;;;6.05;91.28;102384.63;5035866;28;20442;-67
2022/01/16 11:46:40;;;;;;;67.07;24.20;;;;;;;6.01;91.33;102390.97;5052828;28;20063;-67
2022/01/16 11:49:08;;;;;;;58.72;22.55;;;;;;;5.99;91.29;102381.75;5053311;28;20021;-67
2022/01/16 11:53:58;;;;;;;63.13;23.92;;;;;;;6.09;90.49;102383.47;5052679;28;20033;-67
2022/01/16 11:56:55;;;;;;;63.20;24.05;;;;;;;6.03;90.77;102389.06;5052634;28;20020;-67
2022/01/16 11:59:41;;;;;;;62.17;24.52;;;;;;;6.02;91.41;102391.78;5032863;28;20365;-66